sensor_id;sensor_type;location;lat;lon;timestamp;pressure;altitude;pressure_sealevel;temperature;humidity
50349;BME280;36250;48.740;22.174;2023-08-20T00:00:49;100685.25;;;24.55;68.24
50349;BME280;36250;48.740;22.174;2023-08-20T00:03:15;100688.34;;;24.62;68.01
50349;BME280;36250;48.740;22.174;2023-08-20T00:05:40;100687.81;;;24.68;67.77
50349;BME280;36250;48.740;22.174;2023-08-20T00:08:06;100695.34;;;24.68;67.27
50349;BME280;36250;48.740;22.174;2023-08-20T00:10:32;100685.88;;;24.60;67.71
50349;BME280;36250;48.740;22.174;2023-08-20T00:12:57;100688.34;;;24.62;67.49
50349;BME280;36250;48.740;22.174;2023-08-20T00:15:23;100683.91;;;24.61;67.91
50349;BME280;36250;48.740;22.174;2023-08-20T00:17:51;100683.91;;;24.61;67.37
50349;BME280;36250;48.740;22.174;2023-08-20T00:20:17;100676.22;;;24.58;67.66
50349;BME280;36250;48.740;22.174;2023-08-20T00:22:43;100682.28;;;24.60;67.96
50349;BME280;36250;48.740;22.174;2023-08-20T00:25:10;100677.03;;;24.58;67.71
50349;BME280;36250;48.740;22.174;2023-08-20T00:27:36;100682.41;;;24.63;67.85
50349;BME280;36250;48.740;22.174;2023-08-20T00:30:01;100680.09;;;24.74;67.76
50349;BME280;36250;48.740;22.174;2023-08-20T00:32:26;100669.13;;;24.77;67.61
50349;BME280;36250;48.740;22.174;2023-08-20T00:34:52;100671.28;;;24.72;67.43
50349;BME280;36250;48.740;22.174;2023-08-20T00:37:17;100667.19;;;24.69;67.09
50349;BME280;36250;48.740;22.174;2023-08-20T00:39:42;100670.44;;;24.71;67.19
50349;BME280;36250;48.740;22.174;2023-08-20T00:42:07;100672.47;;;24.54;66.96
50349;BME280;36250;48.740;22.174;2023-08-20T00:44:33;100663.97;;;24.42;67.18
50349;BME280;36250;48.740;22.174;2023-08-20T00:46:59;100672.03;;;24.35;67.25
50349;BME280;36250;48.740;22.174;2023-08-20T00:49:25;100669.06;;;24.31;67.16
50349;BME280;36250;48.740;22.174;2023-08-20T00:51:50;100667.09;;;24.32;67.44
50349;BME280;36250;48.740;22.174;2023-08-20T00:54:16;100664.31;;;24.32;66.99
50349;BME280;36250;48.740;22.174;2023-08-20T00:56:41;100661.84;;;24.39;67.14
50349;BME280;36250;48.740;22.174;2023-08-20T00:59:07;100664.81;;;24.42;66.99
50349;BME280;36250;48.740;22.174;2023-08-20T01:01:32;100664.28;;;24.49;66.78
50349;BME280;36250;48.740;22.174;2023-08-20T01:03:57;100651.34;;;24.53;66.78
50349;BME280;36250;48.740;22.174;2023-08-20T01:06:25;100657.03;;;24.65;66.08
50349;BME280;36250;48.740;22.174;2023-08-20T01:08:58;100655.88;;;24.74;65.95
50349;BME280;36250;48.740;22.174;2023-08-20T01:11:29;100659.28;;;24.89;65.28
50349;BME280;36250;48.740;22.174;2023-08-20T01:13:55;100652.50;;;24.98;64.71
50349;BME280;36250;48.740;22.174;2023-08-20T01:16:20;100652.31;;;25.03;65.07
50349;BME280;36250;48.740;22.174;2023-08-20T01:18:46;100656.06;;;25.07;64.76
50349;BME280;36250;48.740;22.174;2023-08-20T01:29:21;100668.75;;;25.25;63.72
50349;BME280;36250;48.740;22.174;2023-08-20T01:31:46;100667.94;;;25.25;64.07
50349;BME280;36250;48.740;22.174;2023-08-20T01:34:12;100668.59;;;25.22;64.24
50349;BME280;36250;48.740;22.174;2023-08-20T01:36:38;100668.31;;;25.15;64.83
50349;BME280;36250;48.740;22.174;2023-08-20T01:39:03;100669.84;;;25.04;65.76
50349;BME280;36250;48.740;22.174;2023-08-20T01:41:30;100667.72;;;25.01;66.16
50349;BME280;36250;48.740;22.174;2023-08-20T01:43:55;100668.78;;;24.88;66.92
50349;BME280;36250;48.740;22.174;2023-08-20T01:46:20;100672.75;;;24.78;67.49
50349;BME280;36250;48.740;22.174;2023-08-20T01:48:45;100679.81;;;24.67;67.96
50349;BME280;36250;48.740;22.174;2023-08-20T01:51:10;100680.63;;;24.59;68.33
50349;BME280;36250;48.740;22.174;2023-08-20T01:53:36;100680.81;;;24.54;68.47
50349;BME280;36250;48.740;22.174;2023-08-20T01:56:01;100678.22;;;24.49;68.76
50349;BME280;36250;48.740;22.174;2023-08-20T01:58:26;100682.47;;;24.46;68.49
50349;BME280;36250;48.740;22.174;2023-08-20T02:00:51;100677.91;;;24.42;69.00
50349;BME280;36250;48.740;22.174;2023-08-20T02:03:17;100679.88;;;24.33;69.28
50349;BME280;36250;48.740;22.174;2023-08-20T02:05:42;100679.25;;;24.27;69.63
50349;BME280;36250;48.740;22.174;2023-08-20T02:08:07;100683.84;;;24.23;69.57
50349;BME280;36250;48.740;22.174;2023-08-20T02:10:32;100681.88;;;24.15;69.77
50349;BME280;36250;48.740;22.174;2023-08-20T02:12:58;100680.56;;;24.12;70.19
50349;BME280;36250;48.740;22.174;2023-08-20T02:15:23;100689.56;;;24.09;70.47
50349;BME280;36250;48.740;22.174;2023-08-20T02:17:48;100687.75;;;24.13;70.12
50349;BME280;36250;48.740;22.174;2023-08-20T02:20:13;100687.75;;;24.13;70.37
50349;BME280;36250;48.740;22.174;2023-08-20T02:22:39;100693.31;;;24.13;70.23
50349;BME280;36250;48.740;22.174;2023-08-20T02:25:04;100697.59;;;24.11;70.28
50349;BME280;36250;48.740;22.174;2023-08-20T02:27:30;100699.88;;;24.09;70.17
50349;BME280;36250;48.740;22.174;2023-08-20T02:29:55;100707.22;;;24.13;69.91
50349;BME280;36250;48.740;22.174;2023-08-20T02:32:20;100701.03;;;24.08;69.98
50349;BME280;36250;48.740;22.174;2023-08-20T02:34:52;100692.81;;;24.11;70.23
50349;BME280;36250;48.740;22.174;2023-08-20T02:37:17;100694.13;;;24.14;69.83
50349;BME280;36250;48.740;22.174;2023-08-20T02:39:42;100704.94;;;24.07;70.10
50349;BME280;36250;48.740;22.174;2023-08-20T02:42:07;100695.91;;;24.01;70.28
50349;BME280;36250;48.740;22.174;2023-08-20T02:44:33;100699.84;;;24.00;70.21
50349;BME280;36250;48.740;22.174;2023-08-20T02:46:58;100699.84;;;24.00;70.17
50349;BME280;36250;48.740;22.174;2023-08-20T02:49:23;100691.03;;;23.98;70.63
50349;BME280;36250;48.740;22.174;2023-08-20T02:51:49;100682.50;;;24.03;70.07
50349;BME280;36250;48.740;22.174;2023-08-20T02:54:14;100676.28;;;24.06;70.22
50349;BME280;36250;48.740;22.174;2023-08-20T02:56:39;100684.94;;;24.05;70.11
50349;BME280;36250;48.740;22.174;2023-08-20T02:59:04;100684.63;;;23.98;70.40
50349;BME280;36250;48.740;22.174;2023-08-20T03:01:30;100687.56;;;23.93;70.20
50349;BME280;36250;48.740;22.174;2023-08-20T03:03:55;100687.91;;;23.91;70.13
50349;BME280;36250;48.740;22.174;2023-08-20T03:06:20;100682.84;;;23.93;70.50
50349;BME280;36250;48.740;22.174;2023-08-20T03:08:45;100690.84;;;23.95;70.23
50349;BME280;36250;48.740;22.174;2023-08-20T03:11:11;100690.03;;;23.94;69.94
50349;BME280;36250;48.740;22.174;2023-08-20T03:13:36;100688.06;;;23.86;70.11
50349;BME280;36250;48.740;22.174;2023-08-20T03:16:01;100683.50;;;23.90;70.51
50349;BME280;36250;48.740;22.174;2023-08-20T03:18:28;100687.41;;;23.89;70.26
50349;BME280;36250;48.740;22.174;2023-08-20T03:20:56;100692.97;;;23.89;70.10
50349;BME280;36250;48.740;22.174;2023-08-20T03:23:21;100688.06;;;23.86;70.31
50349;BME280;36250;48.740;22.174;2023-08-20T03:25:47;100685.63;;;23.76;70.26
50349;BME280;36250;48.740;22.174;2023-08-20T03:28:12;100680.69;;;23.73;70.19
50349;BME280;36250;48.740;22.174;2023-08-20T03:30:37;100687.25;;;23.69;70.06
50349;BME280;36250;48.740;22.174;2023-08-20T03:33:02;100690.31;;;23.67;70.30
50349;BME280;36250;48.740;22.174;2023-08-20T03:35:28;100682.34;;;23.74;70.13
50349;BME280;36250;48.740;22.174;2023-08-20T03:37:53;100680.69;;;23.73;70.37
50349;BME280;36250;48.740;22.174;2023-08-20T03:40:18;100676.63;;;23.79;70.10
50349;BME280;36250;48.740;22.174;2023-08-20T03:42:43;100688.25;;;23.81;69.77
50349;BME280;36250;48.740;22.174;2023-08-20T03:45:08;100689.03;;;23.82;69.40
50349;BME280;36250;48.740;22.174;2023-08-20T03:47:34;100691.81;;;23.82;69.13
50349;BME280;36250;48.740;22.174;2023-08-20T03:49:59;100692.31;;;23.84;68.96
50349;BME280;36250;48.740;22.174;2023-08-20T03:52:24;100694.78;;;23.85;68.70
50349;BME280;36250;48.740;22.174;2023-08-20T03:54:49;100692.97;;;23.89;68.70
50349;BME280;36250;48.740;22.174;2023-08-20T03:57:16;100696.72;;;23.85;69.01
50349;BME280;36250;48.740;22.174;2023-08-20T03:59:41;100700.16;;;23.73;69.05
50349;BME280;36250;48.740;22.174;2023-08-20T04:02:06;100698.50;;;23.72;69.41
50349;BME280;36250;48.740;22.174;2023-08-20T04:04:32;100698.19;;;23.65;69.22
50349;BME280;36250;48.740;22.174;2023-08-20T04:06:57;100711.75;;;23.58;69.70
50349;BME280;36250;48.740;22.174;2023-08-20T04:09:22;100705.28;;;23.32;70.05
50349;BME280;36250;48.740;22.174;2023-08-20T04:11:47;100703.28;;;23.15;70.49
50349;BME280;36250;48.740;22.174;2023-08-20T04:14:12;100709.63;;;23.16;70.72
50349;BME280;36250;48.740;22.174;2023-08-20T04:16:38;100712.16;;;23.34;71.08
50349;BME280;36250;48.740;22.174;2023-08-20T04:19:03;100706.00;;;23.46;70.09
50349;BME280;36250;48.740;22.174;2023-08-20T04:21:29;100715.66;;;23.48;69.94
50349;BME280;36250;48.740;22.174;2023-08-20T04:23:54;100711.75;;;23.49;69.87
50349;BME280;36250;48.740;22.174;2023-08-20T04:26:19;100717.16;;;23.55;69.60
50349;BME280;36250;48.740;22.174;2023-08-20T04:28:44;100719.94;;;23.63;69.65
50349;BME280;36250;48.740;22.174;2023-08-20T04:31:09;100717.16;;;23.63;69.43
50349;BME280;36250;48.740;22.174;2023-08-20T04:33:35;100717.34;;;23.67;69.85
50349;BME280;36250;48.740;22.174;2023-08-20T04:36:00;100721.13;;;23.79;69.31
50349;BME280;36250;48.740;22.174;2023-08-20T04:38:25;100718.16;;;23.93;69.03
50349;BME280;36250;48.740;22.174;2023-08-20T04:40:50;100729.66;;;24.08;68.80
50349;BME280;36250;48.740;22.174;2023-08-20T04:43:16;100732.44;;;24.26;67.86
50349;BME280;36250;48.740;22.174;2023-08-20T04:45:41;100732.09;;;24.36;67.92
50349;BME280;36250;48.740;22.174;2023-08-20T04:48:07;100725.53;;;24.49;67.51
50349;BME280;36250;48.740;22.174;2023-08-20T04:50:32;100731.06;;;24.66;67.51
50349;BME280;36250;48.740;22.174;2023-08-20T04:52:57;100730.91;;;24.79;67.05
50349;BME280;36250;48.740;22.174;2023-08-20T04:55:26;100732.50;;;24.89;66.80
50349;BME280;36250;48.740;22.174;2023-08-20T04:57:51;100736.06;;;24.98;66.58
50349;BME280;36250;48.740;22.174;2023-08-20T05:00:16;100736.00;;;25.15;66.31
50349;BME280;36250;48.740;22.174;2023-08-20T05:02:41;100742.69;;;25.23;66.49
50349;BME280;36250;48.740;22.174;2023-08-20T05:05:06;100738.59;;;25.20;66.51
50349;BME280;36250;48.740;22.174;2023-08-20T05:07:32;100740.63;;;25.11;66.31
50349;BME280;36250;48.740;22.174;2023-08-20T05:09:57;100747.28;;;25.19;66.02
50349;BME280;36250;48.740;22.174;2023-08-20T05:12:22;100745.47;;;25.23;66.12
50349;BME280;36250;48.740;22.174;2023-08-20T05:14:47;100748.59;;;25.21;66.01
50349;BME280;36250;48.740;22.174;2023-08-20T05:17:13;100751.78;;;25.11;65.82
50349;BME280;36250;48.740;22.174;2023-08-20T05:19:38;100752.44;;;25.08;66.01
50349;BME280;36250;48.740;22.174;2023-08-20T05:22:03;100747.44;;;25.22;66.34
50349;BME280;36250;48.740;22.174;2023-08-20T05:24:28;100752.28;;;25.42;65.92
50349;BME280;36250;48.740;22.174;2023-08-20T05:27:03;100754.34;;;25.63;65.60
50349;BME280;36250;48.740;22.174;2023-08-20T05:29:28;100746.53;;;25.77;65.14
50349;BME280;36250;48.740;22.174;2023-08-20T05:31:54;100754.50;;;25.87;64.69
50349;BME280;36250;48.740;22.174;2023-08-20T05:34:19;100756.38;;;25.95;63.72
50349;BME280;36250;48.740;22.174;2023-08-20T05:36:45;100753.88;;;26.02;63.97
50349;BME280;36250;48.740;22.174;2023-08-20T05:39:10;100757.13;;;26.13;63.04
50349;BME280;36250;48.740;22.174;2023-08-20T05:41:35;100756.22;;;26.21;62.81
50349;BME280;36250;48.740;22.174;2023-08-20T05:44:00;100756.50;;;26.28;63.00
50349;BME280;36250;48.740;22.174;2023-08-20T05:46:26;100753.25;;;26.26;63.04
50349;BME280;36250;48.740;22.174;2023-08-20T05:48:51;100760.69;;;26.34;62.91
50349;BME280;36250;48.740;22.174;2023-08-20T05:51:16;100763.44;;;26.42;62.37
50349;BME280;36250;48.740;22.174;2023-08-20T05:53:41;100767.41;;;26.53;62.58
50349;BME280;36250;48.740;22.174;2023-08-20T05:56:06;100765.03;;;26.64;62.12
50349;BME280;36250;48.740;22.174;2023-08-20T05:58:32;100762.59;;;26.62;62.04
50349;BME280;36250;48.740;22.174;2023-08-20T06:00:57;100771.69;;;26.71;61.67
50349;BME280;36250;48.740;22.174;2023-08-20T06:03:22;100779.34;;;26.62;62.13
50349;BME280;36250;48.740;22.174;2023-08-20T06:05:47;100774.13;;;26.73;61.91
50349;BME280;36250;48.740;22.174;2023-08-20T06:08:12;100766.63;;;26.86;61.70
50349;BME280;36250;48.740;22.174;2023-08-20T06:10:38;100771.78;;;26.96;60.90
50349;BME280;36250;48.740;22.174;2023-08-20T06:13:03;100768.06;;;26.92;61.09
50349;BME280;36250;48.740;22.174;2023-08-20T06:15:28;100771.78;;;26.96;61.18
50349;BME280;36250;48.740;22.174;2023-08-20T06:17:55;100775.03;;;26.98;61.18
50349;BME280;36250;48.740;22.174;2023-08-20T06:20:20;100777.59;;;27.03;61.24
50349;BME280;36250;48.740;22.174;2023-08-20T06:22:45;100772.41;;;27.13;60.67
50349;BME280;36250;48.740;22.174;2023-08-20T06:25:10;100771.59;;;27.37;60.41
50349;BME280;36250;48.740;22.174;2023-08-20T06:27:36;100771.06;;;27.56;60.16
50349;BME280;36250;48.740;22.174;2023-08-20T06:30:01;100767.91;;;27.69;60.30
50349;BME280;36250;48.740;22.174;2023-08-20T06:32:26;100762.88;;;27.87;60.37
50349;BME280;36250;48.740;22.174;2023-08-20T06:34:51;100771.38;;;28.02;59.59
50349;BME280;36250;48.740;22.174;2023-08-20T06:37:16;100779.53;;;27.83;59.31
50349;BME280;36250;48.740;22.174;2023-08-20T06:39:42;100778.84;;;27.74;60.23
50349;BME280;36250;48.740;22.174;2023-08-20T06:42:07;100777.94;;;27.58;60.36
50349;BME280;36250;48.740;22.174;2023-08-20T06:44:32;100779.09;;;27.45;60.67
50349;BME280;36250;48.740;22.174;2023-08-20T06:46:58;100782.94;;;27.53;61.19
50349;BME280;36250;48.740;22.174;2023-08-20T06:49:23;100767.44;;;27.55;61.69
50349;BME280;36250;48.740;22.174;2023-08-20T06:51:48;100775.84;;;27.67;61.94
50349;BME280;36250;48.740;22.174;2023-08-20T06:54:14;100777.94;;;27.82;61.57
50349;BME280;36250;48.740;22.174;2023-08-20T06:56:39;100783.97;;;27.96;60.04
50349;BME280;36250;48.740;22.174;2023-08-20T06:59:05;100780.56;;;27.91;59.82
50349;BME280;36250;48.740;22.174;2023-08-20T07:01:30;100788.13;;;28.15;59.64
50349;BME280;36250;48.740;22.174;2023-08-20T07:03:55;100788.91;;;28.27;58.75
50349;BME280;36250;48.740;22.174;2023-08-20T07:06:20;100795.25;;;28.52;57.98
50349;BME280;36250;48.740;22.174;2023-08-20T07:08:45;100793.72;;;28.67;57.19
50349;BME280;36250;48.740;22.174;2023-08-20T07:11:11;100798.72;;;28.73;56.64
50349;BME280;36250;48.740;22.174;2023-08-20T07:13:36;100801.72;;;28.80;56.66
50349;BME280;36250;48.740;22.174;2023-08-20T07:16:01;100804.09;;;28.94;55.49
50349;BME280;36250;48.740;22.174;2023-08-20T07:18:27;100799.94;;;29.03;55.74
50349;BME280;36250;48.740;22.174;2023-08-20T07:20:53;100800.94;;;29.11;55.02
50349;BME280;36250;48.740;22.174;2023-08-20T07:23:18;100794.03;;;29.20;55.19
50349;BME280;36250;48.740;22.174;2023-08-20T07:25:43;100795.84;;;29.28;54.51
50349;BME280;36250;48.740;22.174;2023-08-20T07:28:10;100799.91;;;29.47;54.77
50349;BME280;36250;48.740;22.174;2023-08-20T07:30:35;100801.38;;;29.56;54.25
50349;BME280;36250;48.740;22.174;2023-08-20T07:33:01;100797.03;;;29.59;54.41
50349;BME280;36250;48.740;22.174;2023-08-20T07:35:26;100795.38;;;29.58;54.01
50349;BME280;36250;48.740;22.174;2023-08-20T07:37:51;100798.94;;;29.39;55.19
50349;BME280;36250;48.740;22.174;2023-08-20T07:40:17;100796.03;;;29.36;55.23
50349;BME280;36250;48.740;22.174;2023-08-20T07:42:42;100796.38;;;29.50;54.73
50349;BME280;36250;48.740;22.174;2023-08-20T07:45:08;100795.38;;;29.58;54.69
50349;BME280;36250;48.740;22.174;2023-08-20T07:47:33;100795.81;;;29.60;53.88
50349;BME280;36250;48.740;22.174;2023-08-20T07:49:59;100785.44;;;29.60;53.84
50349;BME280;36250;48.740;22.174;2023-08-20T07:52:24;100786.88;;;29.85;53.96
50349;BME280;36250;48.740;22.174;2023-08-20T07:54:49;100784.00;;;30.01;53.32
50349;BME280;36250;48.740;22.174;2023-08-20T07:57:14;100777.91;;;30.15;53.12
50349;BME280;36250;48.740;22.174;2023-08-20T07:59:40;100787.47;;;30.29;52.89
50349;BME280;36250;48.740;22.174;2023-08-20T08:02:05;100785.38;;;30.26;52.68
50349;BME280;36250;48.740;22.174;2023-08-20T08:04:30;100777.09;;;30.33;53.35
50349;BME280;36250;48.740;22.174;2023-08-20T08:06:56;100780.63;;;30.46;51.34
50349;BME280;36250;48.740;22.174;2023-08-20T08:09:25;100782.59;;;30.45;52.42
50349;BME280;36250;48.740;22.174;2023-08-20T08:11:51;100782.28;;;30.70;52.29
50349;BME280;36250;48.740;22.174;2023-08-20T08:14:17;100783.63;;;30.76;50.42
50349;BME280;36250;48.740;22.174;2023-08-20T08:16:42;100780.44;;;30.77;51.30
50349;BME280;36250;48.740;22.174;2023-08-20T08:19:07;100785.06;;;30.89;51.14
50349;BME280;36250;48.740;22.174;2023-08-20T08:21:32;100777.03;;;30.87;51.71
50349;BME280;36250;48.740;22.174;2023-08-20T08:23:58;100782.13;;;30.82;49.51
50349;BME280;36250;48.740;22.174;2023-08-20T08:26:23;100780.22;;;30.86;50.49
50349;BME280;36250;48.740;22.174;2023-08-20T08:28:48;100785.44;;;31.06;49.04
50349;BME280;36250;48.740;22.174;2023-08-20T08:31:13;100781.31;;;31.23;49.30
50349;BME280;36250;48.740;22.174;2023-08-20T08:33:39;100780.75;;;31.37;49.95
50349;BME280;36250;48.740;22.174;2023-08-20T08:36:04;100776.75;;;31.38;48.19
50349;BME280;36250;48.740;22.174;2023-08-20T08:38:29;100777.41;;;31.50;49.29
50349;BME280;36250;48.740;22.174;2023-08-20T08:40:55;100780.00;;;31.62;47.03
50349;BME280;36250;48.740;22.174;2023-08-20T08:43:20;100776.13;;;31.70;47.09
50349;BME280;36250;48.740;22.174;2023-08-20T08:45:46;100777.03;;;31.78;47.90
50349;BME280;36250;48.740;22.174;2023-08-20T08:48:15;100788.34;;;31.81;47.56
50349;BME280;36250;48.740;22.174;2023-08-20T08:50:40;100772.31;;;31.86;47.11
50349;BME280;36250;48.740;22.174;2023-08-20T08:53:06;100785.09;;;31.79;45.48
50349;BME280;36250;48.740;22.174;2023-08-20T08:55:32;100778.78;;;31.86;46.74
50349;BME280;36250;48.740;22.174;2023-08-20T08:57:57;100779.72;;;31.97;45.30
50349;BME280;36250;48.740;22.174;2023-08-20T09:00:23;100779.09;;;32.07;46.11
50349;BME280;36250;48.740;22.174;2023-08-20T09:02:48;100781.53;;;32.09;45.16
50349;BME280;36250;48.740;22.174;2023-08-20T09:05:13;100778.38;;;32.14;45.49
50349;BME280;36250;48.740;22.174;2023-08-20T09:07:42;100782.88;;;32.18;43.59
50349;BME280;36250;48.740;22.174;2023-08-20T09:10:08;100779.16;;;32.11;44.11
50349;BME280;36250;48.740;22.174;2023-08-20T09:12:34;100785.00;;;32.25;43.49
50349;BME280;36250;48.740;22.174;2023-08-20T09:14:59;100781.78;;;32.26;44.22
50349;BME280;36250;48.740;22.174;2023-08-20T09:17:25;100781.59;;;32.42;43.04
50349;BME280;36250;48.740;22.174;2023-08-20T09:19:53;100777.66;;;32.50;43.89
50349;BME280;36250;48.740;22.174;2023-08-20T09:22:18;100780.47;;;32.50;43.46
50349;BME280;36250;48.740;22.174;2023-08-20T09:24:45;100779.69;;;32.50;41.67
50349;BME280;36250;48.740;22.174;2023-08-20T09:27:11;100778.22;;;32.59;41.34
50349;BME280;36250;48.740;22.174;2023-08-20T09:29:43;100788.09;;;32.79;41.66
50349;BME280;36250;48.740;22.174;2023-08-20T09:32:09;100782.66;;;32.97;42.15
50349;BME280;36250;48.740;22.174;2023-08-20T09:34:38;100786.81;;;33.06;40.78
50349;BME280;36250;48.740;22.174;2023-08-20T09:37:13;100783.69;;;33.15;40.44
50349;BME280;36250;48.740;22.174;2023-08-20T09:39:38;100784.38;;;33.05;40.24
50349;BME280;36250;48.740;22.174;2023-08-20T09:42:04;100777.81;;;32.97;40.33
50349;BME280;36250;48.740;22.174;2023-08-20T09:44:32;100777.50;;;33.02;40.32
50349;BME280;36250;48.740;22.174;2023-08-20T09:46:57;100784.06;;;33.14;40.49
50349;BME280;36250;48.740;22.174;2023-08-20T09:49:23;100784.06;;;33.14;39.57
50349;BME280;36250;48.740;22.174;2023-08-20T09:51:52;100787.03;;;33.28;40.43
50349;BME280;36250;48.740;22.174;2023-08-20T09:54:25;100783.84;;;33.33;40.84
50349;BME280;36250;48.740;22.174;2023-08-20T09:56:54;100781.38;;;33.28;41.47
50349;BME280;36250;48.740;22.174;2023-08-20T09:59:19;100779.81;;;33.34;41.25
50349;BME280;36250;48.740;22.174;2023-08-20T10:01:45;100785.88;;;33.36;40.69
50349;BME280;36250;48.740;22.174;2023-08-20T10:04:12;100779.88;;;33.41;41.96
50349;BME280;36250;48.740;22.174;2023-08-20T10:06:38;100775.91;;;33.45;41.91
50349;BME280;36250;48.740;22.174;2023-08-20T10:09:05;100769.16;;;33.60;41.87
50349;BME280;36250;48.740;22.174;2023-08-20T10:11:30;100768.88;;;33.76;41.84
50349;BME280;36250;48.740;22.174;2023-08-20T10:13:56;100774.22;;;33.88;42.80
50349;BME280;36250;48.740;22.174;2023-08-20T10:16:21;100773.31;;;33.73;43.37
50349;BME280;36250;48.740;22.174;2023-08-20T10:18:48;100756.81;;;33.79;42.07
50349;BME280;36250;48.740;22.174;2023-08-20T10:21:14;100762.16;;;33.44;43.19
50349;BME280;36250;48.740;22.174;2023-08-20T10:23:40;100759.75;;;33.46;43.48
50349;BME280;36250;48.740;22.174;2023-08-20T10:26:06;100757.13;;;33.67;42.95
50349;BME280;36250;48.740;22.174;2023-08-20T10:28:32;100750.78;;;33.84;43.39
50349;BME280;36250;48.740;22.174;2023-08-20T10:31:07;100753.78;;;34.12;44.30
50349;BME280;36250;48.740;22.174;2023-08-20T10:36:18;100751.84;;;34.23;39.82
50349;BME280;36250;48.740;22.174;2023-08-20T10:38:46;100745.38;;;34.26;39.99
50349;BME280;36250;48.740;22.174;2023-08-20T10:41:12;100742.56;;;34.30;39.43
50349;BME280;36250;48.740;22.174;2023-08-20T10:43:38;100745.47;;;34.51;41.82
50349;BME280;36250;48.740;22.174;2023-08-20T10:48:30;100739.94;;;34.90;40.79
50349;BME280;36250;48.740;22.174;2023-08-20T10:50:56;100746.78;;;34.78;41.12
50349;BME280;36250;48.740;22.174;2023-08-20T10:53:22;100740.63;;;34.52;40.68
50349;BME280;36250;48.740;22.174;2023-08-20T10:55:48;100738.28;;;34.68;40.29
50349;BME280;36250;48.740;22.174;2023-08-20T10:58:13;100743.53;;;34.69;40.40
50349;BME280;36250;48.740;22.174;2023-08-20T11:00:38;100738.72;;;34.80;40.31
50349;BME280;36250;48.740;22.174;2023-08-20T11:03:04;100733.91;;;34.98;40.54
50349;BME280;36250;48.740;22.174;2023-08-20T11:05:30;100724.19;;;34.99;40.00
50349;BME280;36250;48.740;22.174;2023-08-20T11:07:56;100729.50;;;35.22;39.33
50349;BME280;36250;48.740;22.174;2023-08-20T11:10:22;100730.72;;;35.21;39.46
50349;BME280;36250;48.740;22.174;2023-08-20T11:12:47;100720.97;;;35.36;38.10
50349;BME280;36250;48.740;22.174;2023-08-20T11:15:13;100731.91;;;35.27;38.47
50349;BME280;36250;48.740;22.174;2023-08-20T11:17:45;100724.22;;;35.45;38.93
50349;BME280;36250;48.740;22.174;2023-08-20T11:20:10;100725.41;;;35.76;39.17
50349;BME280;36250;48.740;22.174;2023-08-20T11:22:39;100720.09;;;36.03;38.20
50349;BME280;36250;48.740;22.174;2023-08-20T11:25:05;100706.28;;;36.19;37.60
50349;BME280;36250;48.740;22.174;2023-08-20T11:27:31;100705.88;;;36.17;37.42
50349;BME280;36250;48.740;22.174;2023-08-20T11:29:57;100708.31;;;36.15;36.65
50349;BME280;36250;48.740;22.174;2023-08-20T11:32:26;100703.00;;;36.31;36.38
50349;BME280;36250;48.740;22.174;2023-08-20T11:34:51;100703.72;;;36.49;36.72
50349;BME280;36250;48.740;22.174;2023-08-20T11:37:20;100699.47;;;36.78;36.94
50349;BME280;36250;48.740;22.174;2023-08-20T11:39:47;100699.63;;;36.57;35.59
50349;BME280;36250;48.740;22.174;2023-08-20T11:42:12;100701.69;;;36.53;36.16
50349;BME280;36250;48.740;22.174;2023-08-20T11:44:45;100705.34;;;36.50;36.28
50349;BME280;36250;48.740;22.174;2023-08-20T11:47:15;100694.00;;;36.40;35.65
50349;BME280;36250;48.740;22.174;2023-08-20T11:49:40;100689.06;;;36.61;35.92
50349;BME280;36250;48.740;22.174;2023-08-20T11:52:05;100683.31;;;36.75;35.78
50349;BME280;36250;48.740;22.174;2023-08-20T11:54:31;100679.28;;;36.69;35.96
50349;BME280;36250;48.740;22.174;2023-08-20T11:57:01;100675.31;;;36.56;35.83
50349;BME280;36250;48.740;22.174;2023-08-20T11:59:27;100674.84;;;36.65;36.79
50349;BME280;36250;48.740;22.174;2023-08-20T12:01:54;100678.94;;;36.60;36.74
50349;BME280;36250;48.740;22.174;2023-08-20T12:04:23;100672.03;;;36.65;36.01
50349;BME280;36250;48.740;22.174;2023-08-20T12:06:52;100663.22;;;36.42;35.69
50349;BME280;36250;48.740;22.174;2023-08-20T12:09:26;100657.84;;;36.61;35.69
50349;BME280;36250;48.740;22.174;2023-08-20T12:11:52;100654.09;;;36.09;36.33
50349;BME280;36250;48.740;22.174;2023-08-20T12:14:18;100655.28;;;36.05;35.65
50349;BME280;36250;48.740;22.174;2023-08-20T12:16:43;100649.06;;;36.38;34.67
50349;BME280;36250;48.740;22.174;2023-08-20T12:19:08;100654.22;;;36.61;35.43
50349;BME280;36250;48.740;22.174;2023-08-20T12:21:34;100650.53;;;36.64;35.06
50349;BME280;36250;48.740;22.174;2023-08-20T12:23:59;100659.03;;;36.64;35.44
50349;BME280;36250;48.740;22.174;2023-08-20T12:26:25;100645.28;;;36.62;34.10
50349;BME280;36250;48.740;22.174;2023-08-20T12:28:50;100648.38;;;36.78;34.70
50349;BME280;36250;48.740;22.174;2023-08-20T12:31:15;100643.28;;;37.11;34.01
50349;BME280;36250;48.740;22.174;2023-08-20T12:33:40;100640.91;;;37.06;34.20
50349;BME280;36250;48.740;22.174;2023-08-20T12:36:06;100642.09;;;37.08;33.94
50349;BME280;36250;48.740;22.174;2023-08-20T12:38:31;100633.09;;;37.17;34.40
50349;BME280;36250;48.740;22.174;2023-08-20T12:40:59;100640.72;;;37.27;34.43
50349;BME280;36250;48.740;22.174;2023-08-20T12:43:24;100643.28;;;37.14;33.45
50349;BME280;36250;48.740;22.174;2023-08-20T12:45:49;100646.56;;;37.50;34.04